createdAt,value
2017-01-10T00:00:03.238Z,0
2017-01-10T00:05:03.104Z,0
2017-01-10T00:10:02.882Z,0
2017-01-10T00:15:02.730Z,0
2017-01-10T00:20:03.377Z,0
2017-01-10T00:25:03.369Z,0
2017-01-10T00:30:03.135Z,0
2017-01-10T00:35:02.910Z,0
2017-01-10T00:40:02.936Z,0
2017-01-10T00:45:02.796Z,0
2017-01-10T00:50:02.721Z,0
2017-01-10T00:55:02.576Z,0
2017-01-10T01:00:02.553Z,0
2017-01-10T01:05:03.273Z,0
2017-01-10T01:10:03.205Z,0
2017-01-10T01:15:03.101Z,0
2017-01-10T01:20:03.116Z,0
2017-01-10T01:25:02.928Z,0
2017-01-10T01:30:02.852Z,0
2017-01-10T01:35:02.680Z,0
2017-01-10T01:40:02.711Z,0
2017-01-10T01:45:02.489Z,0
2017-01-10T01:50:03.290Z,0
2017-01-10T01:55:03.046Z,0
2017-01-10T02:00:02.524Z,0
2017-01-10T02:05:03.300Z,0
2017-01-10T02:10:03.080Z,0
2017-01-10T02:15:03.020Z,0
2017-01-10T02:20:02.959Z,0
2017-01-10T02:25:02.669Z,0
2017-01-10T02:30:02.599Z,0
2017-01-10T02:35:03.484Z,0
2017-01-10T02:40:03.490Z,0
2017-01-10T02:45:03.353Z,0
2017-01-10T02:50:03.318Z,0
2017-01-10T02:55:03.165Z,0
2017-01-10T03:00:02.879Z,0
2017-01-10T03:05:02.728Z,0
2017-01-10T03:10:03.327Z,0
2017-01-10T03:15:03.315Z,0
2017-01-10T03:20:03.169Z,0
2017-01-10T03:25:03.239Z,0
2017-01-10T03:30:03.188Z,0
2017-01-10T03:35:03.066Z,0
2017-01-10T03:40:03.078Z,0
2017-01-10T03:45:02.603Z,0
2017-01-10T03:50:03.513Z,0
2017-01-10T03:55:03.421Z,0
2017-01-10T04:00:03.192Z,0
2017-01-10T04:05:02.773Z,0
2017-01-10T04:10:03.391Z,0
2017-01-10T04:15:03.314Z,0
2017-01-10T04:20:03.106Z,0
2017-01-10T04:25:02.645Z,0
2017-01-10T04:30:03.450Z,0
2017-01-10T04:35:03.131Z,0
2017-01-10T04:40:03.085Z,0
2017-01-10T04:45:02.887Z,0
2017-01-10T04:50:02.806Z,0
2017-01-10T04:55:02.712Z,0
2017-01-10T05:00:02.568Z,0
2017-01-10T05:05:03.550Z,0
2017-01-10T05:10:03.107Z,0
2017-01-10T05:15:02.904Z,0
2017-01-10T05:20:02.705Z,0
2017-01-10T05:25:02.535Z,0
2017-01-10T05:30:03.058Z,0
2017-01-10T05:35:02.900Z,0
2017-01-10T05:40:02.674Z,0
2017-01-10T05:45:02.828Z,0
2017-01-10T05:50:03.370Z,0
2017-01-10T05:55:03.250Z,0
2017-01-10T06:00:03.080Z,0
2017-01-10T06:05:02.777Z,0
2017-01-10T06:10:02.685Z,0
2017-01-10T06:15:02.504Z,0
2017-01-10T06:20:03.314Z,0
2017-01-10T06:25:03.181Z,0
2017-01-10T06:30:03.068Z,0
2017-01-10T06:35:02.616Z,0
2017-01-10T06:40:02.643Z,0
2017-01-10T06:45:03.286Z,0
2017-01-10T06:50:02.832Z,0
2017-01-10T06:55:02.619Z,0
2017-01-10T07:00:03.441Z,0
2017-01-10T07:05:03.329Z,1
2017-01-10T07:10:03.240Z,4
2017-01-10T07:15:03.105Z,7
2017-01-10T07:20:03.004Z,11
2017-01-10T07:25:02.797Z,41
2017-01-10T07:30:02.703Z,54
2017-01-10T07:35:03.457Z,64
2017-01-10T07:40:03.337Z,69
2017-01-10T07:45:03.257Z,71
2017-01-10T07:50:02.900Z,190
2017-01-10T07:55:02.510Z,306
2017-01-10T08:00:03.293Z,344
2017-01-10T08:05:03.091Z,376
2017-01-10T08:10:02.696Z,479
2017-01-10T08:15:02.518Z,570
2017-01-10T08:20:03.312Z,641
2017-01-10T08:25:02.986Z,734
2017-01-10T08:30:02.648Z,970
2017-01-10T08:35:03.289Z,1000
2017-01-10T08:40:02.894Z,1000
2017-01-10T08:45:03.461Z,1000
2017-01-10T08:50:03.311Z,1000
2017-01-10T08:55:03.112Z,2000
2017-01-10T09:00:03.002Z,3000
2017-01-10T09:05:02.843Z,3000
2017-01-10T09:10:02.436Z,1000
2017-01-10T09:15:02.992Z,1000
2017-01-10T09:20:02.558Z,1000
2017-01-10T09:25:03.409Z,2000
2017-01-10T09:30:03.147Z,2000
2017-01-10T09:35:02.841Z,2000
2017-01-10T09:40:02.693Z,1000
2017-01-10T09:45:02.518Z,2000
2017-01-10T09:50:03.297Z,3000
2017-01-10T09:55:03.101Z,3000
2017-01-10T10:00:02.708Z,3000
2017-01-10T10:05:02.593Z,2000
2017-01-10T10:10:02.590Z,3000
2017-01-10T10:15:03.302Z,4000
2017-01-10T10:20:03.311Z,5000
2017-01-10T10:25:02.481Z,3000
2017-01-10T10:30:02.456Z,2000
2017-01-10T10:35:02.639Z,2000
2017-01-10T10:40:03.221Z,2000
2017-01-10T10:45:03.306Z,2000
2017-01-10T10:50:02.560Z,5000
2017-01-10T10:55:04.567Z,5000
2017-01-10T11:00:02.895Z,5000
2017-01-10T11:05:02.758Z,3000
2017-01-10T11:10:02.762Z,5000
2017-01-10T11:15:03.318Z,5000
2017-01-10T11:20:03.193Z,5000
2017-01-10T11:25:02.928Z,5000
2017-01-10T11:30:02.472Z,4000
2017-01-10T11:35:03.090Z,3000
2017-01-10T11:40:02.522Z,5000
2017-01-10T11:45:02.676Z,4000
2017-01-10T11:50:02.870Z,4000
2017-01-10T11:55:03.154Z,3000
2017-01-10T12:00:02.924Z,2000
2017-01-10T12:05:02.939Z,2000
2017-01-10T12:10:02.504Z,2000
2017-01-10T12:15:03.100Z,3000
2017-01-10T12:20:02.803Z,3000
2017-01-10T12:25:02.820Z,3000
2017-01-10T12:30:03.349Z,3000
2017-01-10T12:35:03.074Z,4000
2017-01-10T12:40:02.784Z,3000
2017-01-10T12:45:03.148Z,3000
2017-01-10T12:50:02.887Z,4000
2017-01-10T12:55:02.720Z,4000
2017-01-10T13:00:03.205Z,4000
2017-01-10T13:05:02.956Z,3000
2017-01-10T13:10:02.607Z,2000
2017-01-10T13:15:03.023Z,5000
2017-01-10T13:20:03.103Z,3000
2017-01-10T13:25:03.422Z,2000
2017-01-10T13:30:02.808Z,2000
2017-01-10T13:35:03.415Z,2000
2017-01-10T13:40:02.939Z,1000
2017-01-10T13:45:03.412Z,813
2017-01-10T13:50:03.121Z,764
2017-01-10T13:55:02.595Z,1000
2017-01-10T14:00:03.270Z,1000
2017-01-10T14:05:02.871Z,2000
2017-01-10T14:10:03.335Z,2000
2017-01-10T14:15:02.780Z,2000
2017-01-10T14:20:03.289Z,3000
2017-01-10T14:25:03.161Z,1000
2017-01-10T14:30:02.744Z,1000
2017-01-10T14:35:03.080Z,1000
2017-01-10T14:40:03.439Z,734
2017-01-10T14:45:02.986Z,865
2017-01-10T14:50:02.664Z,782
2017-01-10T14:55:03.220Z,838
2017-01-10T15:00:02.598Z,761
2017-01-10T15:05:02.891Z,761
2017-01-10T15:10:02.626Z,702
2017-01-10T15:15:03.263Z,556
2017-01-10T15:20:02.963Z,294
2017-01-10T15:25:02.535Z,162
2017-01-10T15:30:03.159Z,188
2017-01-10T15:35:02.779Z,175
2017-01-10T15:40:02.531Z,129
2017-01-10T15:45:03.219Z,82
2017-01-10T15:50:02.833Z,66
2017-01-10T15:55:03.346Z,41
2017-01-10T16:00:03.146Z,32
2017-01-10T16:05:02.762Z,23
2017-01-10T16:10:02.486Z,13
2017-01-10T16:15:02.834Z,6
2017-01-10T16:20:03.249Z,2
2017-01-10T16:25:02.822Z,0
2017-01-10T16:30:02.570Z,0
2017-01-10T16:35:02.722Z,0
2017-01-10T16:40:02.631Z,0
2017-01-10T16:45:03.183Z,0
2017-01-10T16:50:03.342Z,0
2017-01-10T16:55:02.836Z,0
2017-01-10T17:00:03.497Z,0
2017-01-10T17:05:03.231Z,0
2017-01-10T17:10:02.793Z,0
2017-01-10T17:15:03.134Z,0
2017-01-10T17:20:02.641Z,0
2017-01-10T17:25:03.074Z,0
2017-01-10T17:30:02.508Z,0
2017-01-10T17:35:03.221Z,0
2017-01-10T17:40:02.827Z,0
2017-01-10T17:45:03.360Z,0
2017-01-10T17:50:02.554Z,0
2017-01-10T17:55:03.129Z,0
2017-01-10T18:00:02.621Z,0
2017-01-10T18:05:03.127Z,0
2017-01-10T18:10:02.755Z,0
2017-01-10T18:15:03.052Z,0
2017-01-10T18:20:03.445Z,0
2017-01-10T18:25:02.939Z,0
2017-01-10T18:30:03.275Z,0
2017-01-10T18:35:03.440Z,0
2017-01-10T18:40:03.204Z,0
2017-01-10T18:45:02.659Z,0
2017-01-10T18:50:03.286Z,0
2017-01-10T18:55:03.257Z,0
2017-01-10T19:00:03.131Z,0
2017-01-10T19:05:03.213Z,0
2017-01-10T19:10:02.918Z,0
2017-01-10T19:15:02.570Z,0
2017-01-10T19:20:02.897Z,0
2017-01-10T19:25:02.996Z,0
2017-01-10T19:30:03.323Z,0
2017-01-10T19:35:03.329Z,0
2017-01-10T19:40:03.459Z,0
2017-01-10T19:45:03.134Z,0
2017-01-10T19:50:02.565Z,0
2017-01-10T19:55:03.242Z,0
2017-01-10T20:00:03.411Z,0
2017-01-10T20:05:02.591Z,0
2017-01-10T20:10:03.627Z,0
2017-01-10T20:15:03.012Z,0
2017-01-10T20:20:02.486Z,0
2017-01-10T20:25:03.465Z,0
2017-01-10T20:30:03.448Z,0
2017-01-10T20:35:03.299Z,0
2017-01-10T20:40:02.976Z,0
2017-01-10T20:45:02.805Z,0
2017-01-10T20:50:02.600Z,0
2017-01-10T20:55:02.557Z,0
2017-01-10T21:00:03.278Z,0
2017-01-10T21:05:03.231Z,0
2017-01-10T21:10:03.327Z,0
2017-01-10T21:15:03.199Z,0
2017-01-10T21:20:02.758Z,0
2017-01-10T21:25:02.699Z,0
2017-01-10T21:30:02.496Z,0
2017-01-10T21:35:03.326Z,0
2017-01-10T21:40:03.073Z,0
2017-01-10T21:45:02.975Z,0
2017-01-10T21:50:02.642Z,0
2017-01-10T21:55:03.329Z,0
2017-01-10T22:00:03.026Z,0
2017-01-10T22:05:02.782Z,0
2017-01-10T22:10:03.337Z,0
2017-01-10T22:15:03.109Z,0
2017-01-10T22:20:02.649Z,0
2017-01-10T22:25:02.484Z,0
2017-01-10T22:30:03.146Z,0
2017-01-10T22:35:02.870Z,0
2017-01-10T22:40:02.616Z,0
2017-01-10T22:45:03.487Z,0
2017-01-10T22:50:03.160Z,0
2017-01-10T22:55:02.717Z,0
2017-01-10T23:00:02.475Z,0
2017-01-10T23:05:03.225Z,0
2017-01-10T23:10:03.186Z,0
2017-01-10T23:15:02.958Z,0
2017-01-10T23:20:02.734Z,0
2017-01-10T23:25:02.454Z,0
2017-01-10T23:30:03.176Z,0
2017-01-10T23:35:02.979Z,0
2017-01-10T23:40:02.529Z,0
2017-01-10T23:45:03.281Z,0
2017-01-10T23:50:02.834Z,0
2017-01-10T23:55:02.499Z,0
